Time;durP1;ratioP1;P1;durP2;ratioP2;P2;SDS_P1;SDS_P2;PMS_P1;PMS_P2;Temp;Humidity;BMP_temperature;BMP_pressure;BME280_temperature;BME280_humidity;BME280_pressure;Samples;Min_cycle;Max_cycle;Signal;HPM_P1;HPM_P2
2021/09/22 00:00:43;;;;;;;15.40;11.30;;;;;;;11.10;83.98;97906.13;5116004;28;20180;-65
2021/09/22 00:03:08;;;;;;;14.80;11.33;;;;;;;10.97;84.84;97903.53;5115941;28;20261;-65
2021/09/22 00:05:34;;;;;;;14.53;11.67;;;;;;;11.07;84.50;97906.53;5115774;28;20859;-65
2021/09/22 00:07:59;;;;;;;15.07;11.73;;;;;;;11.04;84.37;97899.06;5115755;28;20252;-65
2021/09/22 00:10:25;;;;;;;15.10;12.00;;;;;;;11.00;84.91;97905.72;5116144;28;20209;-65
2021/09/22 00:12:50;;;;;;;18.93;12.30;;;;;;;11.11;84.65;97906.94;5097271;28;20260;-65
2021/09/22 00:15:19;;;;;;;16.47;11.60;;;;;;;11.04;85.27;97906.13;5115693;28;20200;-65
2021/09/22 00:17:45;;;;;;;15.73;11.17;;;;;;;10.90;85.88;97900.06;5115468;28;20187;-65
2021/09/22 00:20:12;;;;;;;16.53;10.90;;;;;;;10.86;86.14;97911.97;5097503;28;20184;-65
2021/09/22 00:22:38;;;;;;;15.33;12.10;;;;;;;10.94;86.07;97901.28;5096972;28;20191;-65
2021/09/22 00:25:05;;;;;;;16.03;11.27;;;;;;;10.70;87.16;97907.91;5115513;28;20192;-65
2021/09/22 00:27:31;;;;;;;14.70;11.43;;;;;;;10.70;87.42;97902.66;5115838;28;20213;-65
2021/09/22 00:29:58;;;;;;;14.97;11.37;;;;;;;10.81;87.11;97896.81;5115436;28;20191;-65
2021/09/22 00:32:25;;;;;;;15.63;11.97;;;;;;;10.72;87.75;97899.84;5115383;28;20191;-65
2021/09/22 00:34:50;;;;;;;15.50;12.00;;;;;;;10.79;87.83;97906.72;5115357;28;20263;-65
2021/09/22 00:37:16;;;;;;;15.57;11.70;;;;;;;10.87;87.15;97900.47;5115463;28;20184;-65
2021/09/22 00:39:41;;;;;;;17.20;12.53;;;;;;;10.62;88.87;97900.25;5097131;28;20180;-65
2021/09/22 00:42:07;;;;;;;17.77;12.30;;;;;;;10.55;89.67;97911.72;5115047;28;20252;-65
2021/09/22 00:44:47;;;;;;;15.07;11.90;;;;;;;10.51;90.73;97910.50;5115743;28;20184;-65
2021/09/22 00:47:14;;;;;;;14.27;11.20;;;;;;;10.51;90.17;97898.19;5115198;28;20183;-65
2021/09/22 00:49:39;;;;;;;18.50;12.50;;;;;;;10.55;90.44;97903.84;5115339;28;20252;-64
2021/09/22 00:52:05;;;;;;;17.07;12.40;;;;;;;10.58;89.89;97895.59;5115028;28;20715;-65
2021/09/22 00:54:30;;;;;;;16.13;12.57;;;;;;;10.40;90.49;97896.16;5115081;28;20232;-64
2021/09/22 00:56:56;;;;;;;15.13;11.87;;;;;;;10.43;90.90;97893.94;5115536;28;20168;-65
2021/09/22 00:59:21;;;;;;;14.23;12.07;;;;;;;10.46;90.34;97894.56;5114920;28;20654;-65
2021/09/22 01:01:49;;;;;;;16.17;12.83;;;;;;;10.30;91.45;97895.72;5115060;28;20183;-65
2021/09/22 01:04:16;;;;;;;14.53;11.73;;;;;;;10.34;91.28;97897.75;5115274;28;20570;-65
2021/09/22 01:06:42;;;;;;;18.50;13.47;;;;;;;10.40;91.08;97904.03;5115129;28;20184;-65
2021/09/22 01:09:08;;;;;;;14.90;12.00;;;;;;;10.22;91.28;97906.38;5115043;28;20604;-64
2021/09/22 01:11:35;;;;;;;18.27;13.13;;;;;;;10.23;91.87;97902.75;5114736;28;20218;-65
2021/09/22 01:14:01;;;;;;;15.83;11.93;;;;;;;10.09;92.48;97911.53;5114406;28;20223;-65
2021/09/22 01:16:27;;;;;;;16.43;13.67;;;;;;;10.33;90.76;97905.81;5114316;28;20212;-64
2021/09/22 01:18:52;;;;;;;16.27;12.37;;;;;;;10.12;91.88;97908.53;5114647;28;20184;-65
2021/09/22 01:21:19;;;;;;;17.23;12.93;;;;;;;10.03;92.47;97910.50;5114292;28;20194;-64
2021/09/22 01:23:45;;;;;;;13.83;12.33;;;;;;;10.01;92.49;97908.09;5113633;28;20547;-65
2021/09/22 01:26:10;;;;;;;17.90;13.17;;;;;;;9.75;94.40;97915.78;5114747;28;20192;-64
2021/09/22 01:28:36;;;;;;;18.23;12.73;;;;;;;10.09;92.14;97912.34;5113990;28;20237;-65
2021/09/22 01:31:01;;;;;;;17.57;12.70;;;;;;;9.98;92.31;97918.94;5114109;28;20187;-65
2021/09/22 01:33:27;;;;;;;17.07;12.17;;;;;;;10.14;91.80;97915.16;5095827;28;20187;-65
2021/09/22 01:35:52;;;;;;;15.70;12.60;;;;;;;10.06;91.83;97917.97;5114106;28;20229;-65
2021/09/22 01:38:22;;;;;;;14.63;12.47;;;;;;;10.18;91.04;97910.41;5096155;28;20220;-65
2021/09/22 01:41:02;;;;;;;15.20;12.50;;;;;;;10.35;89.70;97912.47;5095334;28;20572;-65
2021/09/22 01:43:29;;;;;;;16.57;12.83;;;;;;;10.17;90.12;97920.06;5113726;28;20176;-65
2021/09/22 01:45:55;;;;;;;18.07;12.57;;;;;;;10.21;90.12;97915.22;5113819;28;20191;-64
2021/09/22 01:48:21;;;;;;;15.80;12.23;;;;;;;10.32;89.53;97915.47;5113285;28;20671;-65
2021/09/22 01:50:47;;;;;;;18.97;12.07;;;;;;;10.13;90.44;97918.81;5113907;28;20176;-65
2021/09/22 01:53:13;;;;;;;16.30;12.97;;;;;;;10.22;90.18;97917.66;5095101;28;20181;-65
2021/09/22 01:55:38;;;;;;;17.80;13.27;;;;;;;10.33;88.65;97919.72;5113498;28;20239;-65
2021/09/22 01:58:04;;;;;;;16.13;12.57;;;;;;;10.16;89.29;97912.38;5113436;28;20644;-65
2021/09/22 02:00:30;;;;;;;17.47;12.77;;;;;;;10.24;89.12;97914.84;5095226;28;20204;-65
2021/09/22 02:02:55;;;;;;;16.37;13.10;;;;;;;10.10;89.83;97910.53;5113566;28;20259;-65
2021/09/22 02:05:21;;;;;;;15.43;12.13;;;;;;;10.08;89.71;97923.84;5112710;28;20184;-65
2021/09/22 02:07:46;;;;;;;15.17;12.13;;;;;;;10.09;89.01;97914.13;5113241;28;20190;-65
2021/09/22 02:10:11;;;;;;;15.67;12.47;;;;;;;10.06;89.15;97910.13;5113465;28;20186;-65
2021/09/22 02:12:37;;;;;;;15.53;12.10;;;;;;;10.06;88.89;97904.88;5114022;28;20187;-65
2021/09/22 02:15:03;;;;;;;16.73;12.30;;;;;;;10.04;88.72;97906.88;5113449;28;20281;-65
2021/09/22 02:17:29;;;;;;;17.63;12.17;;;;;;;9.86;89.78;97890.91;5113304;28;20184;-65
2021/09/22 02:19:54;;;;;;;16.17;12.43;;;;;;;9.82;90.36;97889.66;5113045;28;20183;-65
2021/09/22 02:22:20;;;;;;;17.93;13.30;;;;;;;9.99;89.48;97890.94;5094555;28;20212;-65
2021/09/22 02:24:45;;;;;;;16.83;12.13;;;;;;;9.85;90.16;97897.94;5112891;28;20192;-65
2021/09/22 02:27:13;;;;;;;19.13;13.13;;;;;;;9.88;90.30;97900.16;5112908;28;20180;-65
2021/09/22 02:29:39;;;;;;;18.97;14.33;;;;;;;9.99;89.89;97896.19;5094988;28;20301;-64
2021/09/22 02:32:06;;;;;;;23.00;16.13;;;;;;;9.93;89.80;97894.34;5074714;28;20204;-65
2021/09/22 02:34:32;;;;;;;22.47;16.83;;;;;;;9.85;90.52;97890.09;5100662;28;20209;-65
2021/09/22 02:36:57;;;;;;;24.10;17.50;;;;;;;9.92;90.28;97892.72;5113201;28;20187;-65
2021/09/22 02:39:23;;;;;;;24.90;17.03;;;;;;;9.79;90.90;97887.44;5112968;28;20624;-65
2021/09/22 02:41:48;;;;;;;22.77;15.90;;;;;;;9.86;90.79;97894.31;5112836;28;20236;-65
2021/09/22 02:44:14;;;;;;;21.33;14.87;;;;;;;9.79;90.89;97897.91;5094548;28;20262;-65
2021/09/22 02:46:39;;;;;;;20.23;14.03;;;;;;;9.72;91.17;97884.78;5094469;28;20190;-65
2021/09/22 02:49:05;;;;;;;19.60;13.80;;;;;;;9.64;91.96;97884.94;5113199;28;20259;-65
2021/09/22 02:51:31;;;;;;;16.73;12.33;;;;;;;9.70;91.16;97871.06;5113046;28;20624;-65
2021/09/22 02:53:56;;;;;;;18.43;13.00;;;;;;;9.72;91.13;97869.06;5112680;28;20537;-65
2021/09/22 02:56:22;;;;;;;16.10;12.93;;;;;;;9.70;90.68;97870.25;5112860;28;20314;-65
2021/09/22 02:58:47;;;;;;;17.47;13.20;;;;;;;9.72;90.73;97879.53;5094883;28;20516;-65
2021/09/22 03:01:12;;;;;;;17.40;13.13;;;;;;;9.81;90.31;97883.59;5112776;28;20180;-65
2021/09/22 03:03:38;;;;;;;17.17;12.73;;;;;;;9.88;89.22;97878.41;5112444;28;20180;-65
2021/09/22 03:06:03;;;;;;;17.97;12.87;;;;;;;9.66;91.00;97880.31;5094668;28;20194;-65
2021/09/22 03:08:29;;;;;;;19.27;12.67;;;;;;;9.58;91.59;97888.34;5112856;28;20321;-64
2021/09/22 03:10:54;;;;;;;17.43;12.83;;;;;;;9.56;91.66;97887.72;5112243;28;20184;-65
2021/09/22 03:13:20;;;;;;;19.00;13.20;;;;;;;9.51;91.87;97890.91;5112730;28;20191;-65
2021/09/22 03:15:45;;;;;;;17.50;13.00;;;;;;;9.56;91.46;97890.34;5112150;28;20199;-65
2021/09/22 03:18:10;;;;;;;19.57;13.63;;;;;;;9.43;92.01;97883.19;5117078;28;20186;-65
2021/09/22 03:20:36;;;;;;;17.77;13.47;;;;;;;9.46;92.28;97884.63;5117258;28;20195;-65
2021/09/22 03:23:01;;;;;;;21.17;13.03;;;;;;;9.39;92.75;97883.78;5115976;28;20645;-65
2021/09/22 03:25:26;;;;;;;16.57;13.13;;;;;;;9.45;91.78;97883.03;5116398;28;20196;-65
2021/09/22 03:27:52;;;;;;;18.30;13.30;;;;;;;9.37;92.49;97888.38;5116757;28;20624;-65
2021/09/22 03:30:18;;;;;;;17.67;12.90;;;;;;;9.38;92.29;97885.59;5116733;28;20180;-65
2021/09/22 03:32:44;;;;;;;17.73;12.83;;;;;;;9.46;91.38;97885.44;5098191;28;20210;-65
2021/09/22 03:35:09;;;;;;;16.57;12.37;;;;;;;9.40;91.08;97885.41;5116232;28;20282;-65
2021/09/22 03:37:35;;;;;;;16.10;12.87;;;;;;;9.32;92.28;97888.97;5116587;28;20690;-65
2021/09/22 03:40:00;;;;;;;17.10;12.93;;;;;;;9.34;91.88;97894.81;5116058;28;20184;-64
2021/09/22 03:42:26;;;;;;;17.73;12.60;;;;;;;9.33;91.99;97895.00;5116262;28;20641;-65
2021/09/22 03:44:51;;;;;;;19.80;13.10;;;;;;;9.20;93.04;97903.56;5116125;28;20229;-65
2021/09/22 03:47:17;;;;;;;18.93;13.13;;;;;;;9.16;93.63;97904.94;5116013;28;20288;-65
2021/09/22 03:49:42;;;;;;;18.03;12.07;;;;;;;9.28;92.84;97905.25;5098086;28;20272;-65
2021/09/22 03:52:07;;;;;;;16.43;11.57;;;;;;;9.38;91.92;97903.09;5116543;28;20187;-65
2021/09/22 03:54:33;;;;;;;15.83;11.73;;;;;;;9.29;92.22;97904.25;5115820;28;20231;-65
2021/09/22 03:56:58;;;;;;;16.77;12.67;;;;;;;9.27;91.75;97906.22;5116024;28;20245;-65
2021/09/22 03:59:24;;;;;;;17.50;12.50;;;;;;;9.23;92.18;97902.38;5116381;28;20184;-65
2021/09/22 04:01:49;;;;;;;19.77;14.07;;;;;;;9.23;91.76;97895.34;5097632;28;20716;-64
2021/09/22 04:04:15;;;;;;;17.87;13.73;;;;;;;9.16;92.19;97907.56;5116219;28;20187;-64
2021/09/22 04:06:40;;;;;;;17.83;12.87;;;;;;;9.20;92.36;97908.78;5115999;28;20187;-65
2021/09/22 04:09:10;;;;;;;19.93;14.73;;;;;;;9.12;92.58;97906.34;5116248;28;20187;-65
2021/09/22 04:11:39;;;;;;;21.37;14.53;;;;;;;9.28;92.19;97907.84;5116153;28;20530;-65
2021/09/22 04:14:04;;;;;;;18.77;13.33;;;;;;;9.38;91.68;97909.13;5115403;28;20218;-64
2021/09/22 04:16:30;;;;;;;20.53;12.83;;;;;;;9.24;92.25;97907.44;5115369;28;20687;-66
2021/09/22 04:18:56;;;;;;;16.20;12.20;;;;;;;9.18;92.98;97916.03;5097333;28;20596;-64
2021/09/22 04:21:22;;;;;;;14.97;12.33;;;;;;;9.07;93.14;97904.28;5115684;28;20632;-64
2021/09/22 04:23:47;;;;;;;19.33;12.50;;;;;;;9.06;93.11;97907.09;5115384;28;20188;-64
2021/09/22 04:26:13;;;;;;;16.80;11.67;;;;;;;9.11;92.71;97912.56;5115842;28;20547;-64
2021/09/22 04:28:38;;;;;;;17.83;11.77;;;;;;;9.13;92.76;97913.19;5114849;28;20184;-65
2021/09/22 04:31:04;;;;;;;18.37;12.90;;;;;;;9.09;93.10;97912.75;5115295;28;20195;-64
2021/09/22 04:33:29;;;;;;;15.10;11.63;;;;;;;9.06;93.07;97912.31;5115115;28;20217;-64
2021/09/22 04:35:56;;;;;;;15.00;12.20;;;;;;;9.15;92.39;97913.78;5114976;28;20274;-64
2021/09/22 04:38:22;;;;;;;20.17;12.73;;;;;;;9.03;93.03;97917.91;5115045;28;20602;-64
2021/09/22 04:40:47;;;;;;;17.27;11.80;;;;;;;9.14;92.18;97915.59;5115999;28;20643;-64
2021/09/22 04:43:13;;;;;;;17.60;12.10;;;;;;;9.17;91.96;97914.41;5115092;28;20266;-64
2021/09/22 04:45:38;;;;;;;15.80;11.97;;;;;;;9.10;92.54;97916.97;5115195;28;20192;-64
2021/09/22 04:48:06;;;;;;;16.80;10.90;;;;;;;8.99;92.83;97914.06;5115168;28;20539;-64
2021/09/22 04:50:32;;;;;;;14.27;10.97;;;;;;;9.02;92.55;97905.84;5114670;28;20187;-64
2021/09/22 04:52:57;;;;;;;16.23;11.90;;;;;;;8.98;92.44;97908.03;5114387;28;20184;-64
2021/09/22 04:55:23;;;;;;;14.30;10.60;;;;;;;8.96;92.12;97906.59;5114054;28;20711;-65
2021/09/22 04:57:49;;;;;;;14.10;10.37;;;;;;;8.89;92.77;97903.94;5115000;28;20193;-66
2021/09/22 05:00:14;;;;;;;16.37;11.37;;;;;;;8.92;92.98;97903.53;5096381;28;20190;-65
2021/09/22 05:02:40;;;;;;;16.67;11.77;;;;;;;8.92;92.96;97908.78;5114601;28;20196;-65
2021/09/22 05:05:06;;;;;;;17.70;10.80;;;;;;;8.87;93.34;97907.72;5114888;28;20180;-65
2021/09/22 05:07:31;;;;;;;16.80;11.47;;;;;;;8.94;92.58;97916.44;5114335;28;20180;-65
2021/09/22 05:09:57;;;;;;;16.53;10.97;;;;;;;8.89;93.34;97918.81;5113691;28;20176;-64
2021/09/22 05:12:22;;;;;;;14.33;10.70;;;;;;;8.80;93.07;97912.09;5113916;28;20267;-65
2021/09/22 05:14:48;;;;;;;13.80;10.40;;;;;;;8.80;93.04;97904.25;5113377;28;20276;-64
2021/09/22 05:17:13;;;;;;;15.17;11.23;;;;;;;8.70;94.03;97915.00;5113693;28;20188;-64
2021/09/22 05:19:38;;;;;;;12.97;9.83;;;;;;;8.77;93.07;97905.44;5113487;28;20180;-65
2021/09/22 05:22:04;;;;;;;13.07;10.27;;;;;;;8.97;91.79;97911.63;5113293;28;20564;-64
2021/09/22 05:24:30;;;;;;;12.83;10.87;;;;;;;8.87;92.28;97915.56;5114116;28;20550;-64
2021/09/22 05:26:55;;;;;;;11.97;10.53;;;;;;;8.93;92.40;97920.84;5114407;28;20704;-64
2021/09/22 05:29:21;;;;;;;15.03;10.80;;;;;;;8.93;91.95;97906.97;5114683;28;20221;-65
2021/09/22 05:31:47;;;;;;;15.47;10.80;;;;;;;8.95;92.68;97910.22;5113952;28;20237;-64
2021/09/22 05:34:12;;;;;;;15.77;11.53;;;;;;;9.04;92.28;97915.13;5114279;28;20184;-64
2021/09/22 05:36:38;;;;;;;13.57;10.40;;;;;;;9.19;91.30;97913.22;5114099;28;20242;-64
2021/09/22 05:39:04;;;;;;;15.73;11.90;;;;;;;9.28;90.52;97919.13;5113357;28;20592;-65
2021/09/22 05:41:29;;;;;;;14.57;11.73;;;;;;;9.38;90.42;97917.00;5114101;28;20202;-64
2021/09/22 05:43:55;;;;;;;15.13;11.17;;;;;;;9.41;90.46;97919.25;5113812;28;20212;-65
2021/09/22 05:46:20;;;;;;;16.90;12.37;;;;;;;9.51;90.28;97918.88;5095968;28;20214;-64
2021/09/22 05:48:46;;;;;;;14.80;11.57;;;;;;;9.57;89.99;97926.78;5113475;28;20259;-65
2021/09/22 05:51:11;;;;;;;16.93;11.93;;;;;;;9.69;89.52;97921.81;5112666;28;20180;-65
2021/09/22 05:53:37;;;;;;;18.13;12.30;;;;;;;9.76;89.22;97924.47;5113271;28;20187;-65
2021/09/22 05:56:02;;;;;;;17.17;12.10;;;;;;;9.90;89.00;97920.94;5112126;28;20672;-65
2021/09/22 05:58:29;;;;;;;18.03;11.93;;;;;;;10.07;88.69;97922.22;5113159;28;20186;-65
2021/09/22 06:00:56;;;;;;;16.37;12.17;;;;;;;10.16;88.51;97930.69;5112826;28;20204;-65
2021/09/22 06:03:22;;;;;;;19.13;12.60;;;;;;;10.55;86.35;97919.56;5113325;28;20225;-65
2021/09/22 06:05:47;;;;;;;19.10;12.37;;;;;;;10.58;86.59;97922.63;5113592;28;20200;-65
2021/09/22 06:08:13;;;;;;;21.97;12.20;;;;;;;10.73;86.27;97925.06;5113810;28;20660;-65
2021/09/22 06:10:39;;;;;;;22.07;11.90;;;;;;;10.93;84.96;97922.44;5113512;28;20641;-66
2021/09/22 06:13:05;;;;;;;16.93;11.27;;;;;;;11.12;83.86;97925.09;5113012;28;20176;-66
2021/09/22 06:15:31;;;;;;;14.73;11.37;;;;;;;11.23;83.48;97924.50;5113030;28;20216;-66
2021/09/22 06:17:57;;;;;;;19.17;11.57;;;;;;;11.37;82.86;97916.63;5095180;28;20175;-65
2021/09/22 06:20:22;;;;;;;14.67;12.07;;;;;;;11.51;82.14;97923.47;5112748;28;20494;-65
2021/09/22 06:22:48;;;;;;;14.97;11.13;;;;;;;11.60;81.20;97927.47;5113181;28;20191;-65
2021/09/22 06:25:14;;;;;;;17.50;10.67;;;;;;;11.66;80.01;97929.28;5113120;28;20275;-65
2021/09/22 06:27:40;;;;;;;15.30;9.97;;;;;;;11.73;79.83;97926.66;5112523;28;20191;-65
2021/09/22 06:30:07;;;;;;;14.97;10.83;;;;;;;11.79;79.57;97929.31;5112752;28;20672;-65
2021/09/22 06:32:32;;;;;;;13.83;10.10;;;;;;;11.97;78.57;97921.59;5113291;28;20190;-65
2021/09/22 06:34:58;;;;;;;13.27;9.37;;;;;;;12.13;77.99;97922.94;5112791;28;20567;-65
2021/09/22 06:37:23;;;;;;;14.03;10.40;;;;;;;12.25;77.62;97926.53;5113401;28;20262;-65
2021/09/22 06:39:48;;;;;;;14.30;10.07;;;;;;;12.26;77.27;97930.75;5094873;28;20684;-65
2021/09/22 06:42:14;;;;;;;14.53;9.97;;;;;;;12.47;76.54;97927.03;5112787;28;20195;-65
2021/09/22 06:44:39;;;;;;;12.83;10.73;;;;;;;12.72;75.27;97929.72;5113388;28;20274;-65
2021/09/22 06:47:05;;;;;;;15.23;9.90;;;;;;;12.67;75.65;97934.81;5111766;28;20188;-65
2021/09/22 06:49:30;;;;;;;11.93;9.57;;;;;;;12.83;75.31;97927.22;5111968;28;20258;-65
2021/09/22 06:51:56;;;;;;;13.67;9.67;;;;;;;12.87;75.18;97927.63;5112461;28;20636;-66
2021/09/22 06:54:22;;;;;;;15.97;9.90;;;;;;;13.06;74.24;97933.75;5112986;28;20224;-65
2021/09/22 06:56:48;;;;;;;13.20;10.63;;;;;;;12.99;73.99;97933.78;5113469;28;20663;-65
2021/09/22 06:59:13;;;;;;;13.27;10.27;;;;;;;13.05;74.31;97940.03;5112532;28;20172;-65
2021/09/22 07:01:40;;;;;;;13.60;10.40;;;;;;;13.16;73.16;97936.72;5111027;28;20187;-65
2021/09/22 07:04:06;;;;;;;15.63;10.33;;;;;;;13.22;73.25;97939.31;5112207;28;20207;-66
2021/09/22 07:06:32;;;;;;;14.23;10.40;;;;;;;13.30;73.04;97944.31;5110426;28;20186;-65
2021/09/22 07:08:57;;;;;;;15.43;11.33;;;;;;;13.31;73.12;97947.78;5109954;28;20180;-65
2021/09/22 07:11:23;;;;;;;13.17;10.13;;;;;;;13.30;72.57;97941.69;5094606;28;20588;-66
2021/09/22 07:13:48;;;;;;;12.10;9.37;;;;;;;13.30;73.06;97946.97;5111641;28;20195;-66
2021/09/22 07:16:16;;;;;;;12.77;10.47;;;;;;;13.50;71.76;97948.59;5111824;28;20548;-65
2021/09/22 07:18:43;;;;;;;13.57;10.30;;;;;;;13.51;71.03;97951.03;5111657;28;20189;-66
2021/09/22 07:21:10;;;;;;;15.17;11.03;;;;;;;13.53;70.48;97954.25;5111979;28;20650;-66
2021/09/22 07:23:36;;;;;;;14.57;10.33;;;;;;;13.48;70.26;97956.75;5112142;28;20570;-68
2021/09/22 07:26:03;;;;;;;12.83;9.70;;;;;;;13.61;69.93;97958.44;5112582;28;20267;-66
2021/09/22 07:28:29;;;;;;;13.73;10.70;;;;;;;13.76;69.34;97963.38;5112751;28;20172;-66
2021/09/22 07:30:54;;;;;;;12.57;9.80;;;;;;;13.78;68.45;97961.31;5112466;28;20283;-66
2021/09/22 07:33:19;;;;;;;12.33;9.63;;;;;;;13.88;68.05;97969.53;5112512;28;20249;-66
2021/09/22 07:35:47;;;;;;;12.60;9.57;;;;;;;13.97;68.21;97965.59;5109985;28;20212;-66
2021/09/22 07:38:12;;;;;;;12.30;9.70;;;;;;;14.10;67.96;97974.16;5111050;28;20259;-66
2021/09/22 07:40:38;;;;;;;11.20;9.77;;;;;;;14.24;67.42;97968.75;5111497;28;20279;-66
2021/09/22 07:43:03;;;;;;;14.27;11.17;;;;;;;14.14;67.21;97966.63;5111646;28;20180;-66
2021/09/22 07:45:29;;;;;;;11.77;9.70;;;;;;;14.36;67.00;97967.78;5113038;28;20175;-66
2021/09/22 07:47:54;;;;;;;13.00;9.77;;;;;;;14.49;66.95;97966.84;5112453;28;20195;-65
2021/09/22 07:50:20;;;;;;;12.73;10.73;;;;;;;14.36;67.08;97974.91;5112357;28;20271;-66
2021/09/22 07:52:45;;;;;;;13.37;10.00;;;;;;;14.41;67.16;97969.78;5093875;28;20172;-66
2021/09/22 07:55:11;;;;;;;12.60;9.90;;;;;;;14.62;66.68;97968.50;5093707;28;20306;-67
2021/09/22 07:57:37;;;;;;;13.73;9.00;;;;;;;14.66;66.70;97965.19;5093815;28;20191;-66
2021/09/22 08:00:05;;;;;;;11.60;10.03;;;;;;;14.98;65.70;97973.72;5111375;28;20184;-66
2021/09/22 08:02:31;;;;;;;12.07;9.97;;;;;;;15.13;65.51;97965.34;5094038;28;20184;-66
2021/09/22 08:04:57;;;;;;;10.80;8.90;;;;;;;15.03;63.98;97967.75;5115191;28;20187;-66
2021/09/22 08:07:22;;;;;;;13.33;9.00;;;;;;;15.05;64.58;97969.13;5097618;28;20225;-66
2021/09/22 08:09:48;;;;;;;12.87;9.40;;;;;;;14.93;65.86;97969.09;5115774;28;20644;-66
2021/09/22 08:12:14;;;;;;;11.87;8.97;;;;;;;14.83;67.62;97965.38;5097878;28;20180;-66
2021/09/22 08:14:39;;;;;;;12.77;9.23;;;;;;;15.09;66.43;97966.84;5115831;28;20600;-66
2021/09/22 08:17:05;;;;;;;13.30;9.27;;;;;;;15.05;65.05;97978.88;5116497;28;20168;-66
2021/09/22 08:19:33;;;;;;;10.13;8.50;;;;;;;15.04;65.84;97974.66;5115405;28;20601;-66
2021/09/22 08:21:58;;;;;;;11.30;9.27;;;;;;;15.03;65.99;97973.84;5115034;28;20180;-66
2021/09/22 08:24:24;;;;;;;9.60;8.57;;;;;;;15.33;64.35;97971.94;5114821;28;20195;-66
2021/09/22 08:26:52;;;;;;;10.90;8.17;;;;;;;15.61;62.46;97968.66;5116026;28;20710;-66
2021/09/22 08:29:19;;;;;;;9.47;8.23;;;;;;;15.56;62.57;97971.19;5123995;27;20524;-66
2021/09/22 08:31:44;;;;;;;18.77;9.70;;;;;;;15.71;62.24;97971.56;5115449;28;20180;-66
2021/09/22 08:34:10;;;;;;;7.00;4.47;;;;;;;16.02;68.68;97970.38;5114920;28;20183;-61
2021/09/22 08:36:35;;;;;;;10.93;7.83;;;;;;;16.25;61.03;97977.47;5114627;28;20199;-62
2021/09/22 08:39:01;;;;;;;;;;;;;;;15.93;59.34;97978.91;5115606;28;20095;-63
2021/09/22 08:41:26;;;;;;;9.07;7.40;;;;;;;15.90;61.35;97977.53;5115104;28;20227;-62
2021/09/22 08:43:53;;;;;;;9.73;7.97;;;;;;;16.04;61.93;97975.44;5113814;28;20337;-62
2021/09/22 08:46:19;;;;;;;13.13;9.13;;;;;;;16.08;61.77;97981.88;5114056;28;20184;-63
2021/09/22 08:48:45;;;;;;;9.87;7.83;;;;;;;16.21;61.28;97981.66;5113408;28;20760;-63
2021/09/22 08:51:11;;;;;;;24.83;8.93;;;;;;;16.08;62.42;97981.88;5112839;28;20199;-62
2021/09/22 08:53:36;;;;;;;13.47;7.70;;;;;;;16.36;59.48;97976.66;5114936;28;20184;-63
2021/09/22 08:56:02;;;;;;;10.67;8.10;;;;;;;16.79;58.71;97978.84;5112643;28;20451;-63
2021/09/22 08:58:28;;;;;;;9.30;7.88;;;;;;;16.25;56.01;97974.03;5113604;28;20467;-62
2021/09/22 09:01:09;;;;;;;8.48;7.57;;;;;;;16.39;58.33;97968.25;5113320;28;20391;-62
2021/09/22 09:03:40;;;;;;;9.60;7.70;;;;;;;16.55;55.31;97975.44;5105959;28;20407;-62
2021/09/22 09:06:14;;;;;;;9.73;7.63;;;;;;;16.34;56.11;97970.78;5112827;28;20392;-63
2021/09/22 09:08:40;;;;;;;7.97;7.18;;;;;;;16.34;55.58;97968.13;5112999;28;20741;-62
2021/09/22 09:11:05;;;;;;;9.10;6.93;;;;;;;15.95;53.67;97982.91;5113153;28;20384;-62
2021/09/22 09:13:44;;;;;;;7.97;7.18;;;;;;;15.69;56.54;97978.09;5113143;28;20475;-62
2021/09/22 09:16:16;;;;;;;11.35;7.57;;;;;;;15.94;57.32;97975.25;5112794;28;20451;-63
2021/09/22 09:18:45;;;;;;;9.45;8.13;;;;;;;15.83;58.28;97971.53;5093943;28;20801;-62
2021/09/22 09:21:10;;;;;;;9.02;8.10;;;;;;;15.55;57.92;97977.50;5113146;28;20395;-62
2021/09/22 09:23:35;;;;;;;8.48;7.57;;;;;;;15.60;58.44;97977.66;5112894;28;20384;-62
2021/09/22 09:26:04;;;;;;;9.10;8.10;;;;;;;15.72;58.43;97969.69;5112395;28;20507;-62
2021/09/22 09:28:32;;;;;;;7.85;6.88;;;;;;;15.97;56.82;97969.47;5112721;28;20394;-62
2021/09/22 09:31:04;;;;;;;8.35;7.20;;;;;;;16.02;57.67;97959.81;5113220;28;20699;-62
2021/09/22 09:33:43;;;;;;;8.45;7.03;;;;;;;15.72;57.06;97962.56;5112035;28;20524;-62
2021/09/22 09:36:23;;;;;;;8.25;7.45;;;;;;;15.68;58.17;97955.34;5112568;28;20742;-62
2021/09/22 09:39:13;;;;;;;8.80;7.68;;;;;;;15.58;59.59;97957.75;5105324;28;20389;-62
2021/09/22 09:41:51;;;;;;;8.05;7.25;;;;;;;15.60;59.26;97953.06;5112814;28;20393;-62
2021/09/22 09:44:21;;;;;;;7.80;6.50;;;;;;;15.62;59.04;97954.41;5112106;28;20400;-62
2021/09/22 09:46:48;;;;;;;6.70;5.68;;;;;;;15.45;58.05;97950.81;5094649;28;20430;-62
2021/09/22 09:49:17;;;;;;;6.95;6.25;;;;;;;15.60;57.12;97958.34;5112587;28;20424;-62
2021/09/22 09:51:44;;;;;;;6.33;5.40;;;;;;;15.49;56.27;97957.25;5112224;28;20491;-62
2021/09/22 09:54:33;;;;;;;6.13;5.50;;;;;;;15.56;56.42;97951.88;5111894;28;20383;-62
2021/09/22 09:57:13;;;;;;;6.05;5.45;;;;;;;15.92;55.85;97945.56;5107788;28;20576;-62
2021/09/22 09:59:44;;;;;;;6.15;5.40;;;;;;;15.72;54.91;97948.56;5112379;28;20886;-62
2021/09/22 10:02:28;;;;;;;6.15;5.25;;;;;;;15.89;55.90;97938.88;5111808;28;20488;-63
2021/09/22 10:04:54;;;;;;;7.20;5.75;;;;;;;16.33;55.76;97936.63;5112949;28;20392;-62
2021/09/22 10:07:19;;;;;;;5.80;5.28;;;;;;;16.31;55.96;97928.13;5112673;28;20883;-62
2021/09/22 10:09:45;;;;;;;6.33;5.63;;;;;;;16.02;54.62;97933.34;5088525;28;20395;-62
2021/09/22 10:12:13;;;;;;;5.97;5.22;;;;;;;16.01;55.30;97933.59;5111883;28;20851;-62
2021/09/22 10:14:40;;;;;;;7.20;5.90;;;;;;;16.15;55.78;97934.97;5111860;28;20426;-62
2021/09/22 10:17:06;;;;;;;6.57;5.90;;;;;;;15.77;56.58;97938.91;5112326;28;20380;-62
2021/09/22 10:19:33;;;;;;;7.25;6.53;;;;;;;15.40;58.02;97919.81;5111645;28;20392;-62
2021/09/22 10:21:59;;;;;;;7.57;6.10;;;;;;;15.66;58.15;97917.78;5111433;28;20935;-62
2021/09/22 10:24:24;;;;;;;7.00;6.10;;;;;;;16.10;57.65;97921.63;5111708;28;20404;-62
2021/09/22 10:26:50;;;;;;;8.57;6.55;;;;;;;16.10;57.89;97916.34;5093402;28;20400;-62
2021/09/22 10:29:27;;;;;;;7.20;6.28;;;;;;;16.35;56.86;97916.81;5111854;28;20887;-62
2021/09/22 10:31:55;;;;;;;7.47;6.63;;;;;;;16.38;56.18;97918.22;5112167;28;20393;-62
2021/09/22 10:34:32;;;;;;;8.00;7.05;;;;;;;16.04;57.74;97928.66;5093638;28;20395;-62
2021/09/22 10:36:58;;;;;;;8.02;6.18;;;;;;;16.01;58.33;97918.53;5111368;28;20392;-63
2021/09/22 10:39:34;;;;;;;13.10;7.43;;;;;;;15.98;57.91;97923.50;5093524;28;20393;-62
2021/09/22 10:41:59;;;;;;;7.63;5.95;;;;;;;16.44;56.75;97911.97;5111274;28;20883;-62
2021/09/22 10:44:33;;;;;;;7.87;6.77;;;;;;;16.36;56.21;97913.16;5111213;28;20381;-62
2021/09/22 10:47:20;;;;;;;8.23;6.63;;;;;;;15.86;58.01;97915.56;5111599;28;20392;-62
2021/09/22 10:49:46;;;;;;;7.93;6.75;;;;;;;15.92;58.12;97909.34;5101816;28;20399;-62
2021/09/22 10:52:36;;;;;;;9.23;6.57;;;;;;;16.32;57.44;97906.72;5111690;28;20385;-62
2021/09/22 10:55:17;;;;;;;7.80;6.50;;;;;;;16.44;56.62;97907.47;5111470;28;20420;-63
2021/09/22 10:57:45;;;;;;;6.80;6.07;;;;;;;16.42;56.48;97898.16;5074082;28;20746;-63
2021/09/22 11:00:14;;;;;;;6.53;5.93;;;;;;;16.11;57.62;97904.69;5093414;28;20428;-62
2021/09/22 11:02:53;;;;;;;7.18;5.80;;;;;;;16.27;57.37;97900.53;5111200;28;20399;-62
2021/09/22 11:05:27;;;;;;;8.43;5.70;;;;;;;16.54;56.34;97896.28;5111287;28;20389;-63
2021/09/22 11:07:53;;;;;;;6.20;5.40;;;;;;;16.52;55.91;97895.72;5110932;28;20392;-62
2021/09/22 11:10:40;;;;;;;5.95;5.13;;;;;;;16.29;55.83;97901.88;5111782;28;20565;-62
2021/09/22 11:13:23;;;;;;;5.55;5.05;;;;;;;16.37;56.11;97885.66;5111139;28;20795;-62
2021/09/22 11:15:53;;;;;;;7.80;5.63;;;;;;;16.39;55.88;97883.56;5111503;28;20404;-62
2021/09/22 11:18:20;;;;;;;5.90;5.30;;;;;;;16.31;55.95;97891.09;5084684;28;20443;-62
2021/09/22 11:20:56;;;;;;;6.72;5.53;;;;;;;16.47;55.69;97877.09;5111401;28;20422;-63
2021/09/22 11:23:22;;;;;;;5.50;5.00;;;;;;;16.41;54.93;97881.50;5102487;28;20388;-62